createdAt,value
2023-03-21T00:04:21.350Z,22.27
2023-03-21T00:09:43.247Z,23.65
2023-03-21T00:15:10.334Z,22.77
2023-03-21T00:20:33.495Z,23.65
2023-03-21T00:25:55.489Z,22.73
2023-03-21T00:31:18.227Z,21.42
2023-03-21T00:36:40.152Z,22.15
2023-03-21T00:42:02.363Z,23.08
2023-03-21T00:47:25.915Z,22.80
2023-03-21T00:52:47.900Z,22.85
2023-03-21T00:58:10.111Z,23.77
2023-03-21T01:03:33.494Z,23.60
2023-03-21T01:08:55.368Z,22.95
2023-03-21T01:14:22.908Z,23.67
2023-03-21T01:19:52.027Z,22.52
2023-03-21T01:25:22.269Z,21.70
2023-03-21T01:30:50.286Z,23.08
2023-03-21T01:36:24.903Z,22.10
2023-03-21T01:41:47.179Z,21.73
2023-03-21T01:47:12.281Z,21.38
2023-03-21T01:52:38.841Z,21.55
2023-03-21T01:58:06.352Z,21.98
2023-03-21T02:03:36.157Z,22.23
2023-03-21T02:09:05.307Z,21.25
2023-03-21T02:14:29.556Z,20.05
2023-03-21T02:20:32.937Z,21.83
2023-03-21T02:26:12.816Z,21.38
2023-03-21T02:32:05.966Z,20.95
2023-03-21T02:37:58.273Z,22.45
2023-03-21T02:43:37.195Z,21.60
2023-03-21T02:49:03.015Z,21.35
2023-03-21T02:54:41.855Z,21.20
2023-03-21T03:00:16.981Z,21.80
2023-03-21T03:05:48.151Z,21.27
2023-03-21T03:11:27.927Z,19.95
2023-03-21T03:17:08.723Z,19.83
2023-03-21T03:23:03.671Z,19.58
2023-03-21T03:28:30.297Z,19.27
2023-03-21T03:39:18.124Z,18.33
2023-03-21T03:44:40.134Z,17.40
2023-03-21T03:50:10.890Z,18.58
2023-03-21T03:55:33.752Z,18.13
2023-03-21T04:00:56.007Z,17.70
2023-03-21T04:06:19.353Z,17.90
2023-03-21T04:11:41.221Z,16.42
2023-03-21T04:17:03.081Z,17.10
2023-03-21T04:22:25.265Z,15.07
2023-03-21T04:27:47.188Z,15.63
2023-03-21T04:33:09.072Z,18.27
2023-03-21T04:38:31.031Z,16.00
2023-03-21T04:43:54.334Z,17.45
2023-03-21T04:49:16.321Z,16.38
2023-03-21T04:54:38.160Z,16.45
2023-03-21T04:59:59.990Z,14.70
2023-03-21T05:05:21.884Z,15.75
2023-03-21T05:10:43.811Z,15.00
2023-03-21T05:16:06.211Z,14.52
2023-03-21T05:21:28.066Z,15.65
2023-03-21T05:26:50.018Z,14.32
2023-03-21T05:32:11.842Z,12.45
2023-03-21T05:37:33.795Z,12.80
2023-03-21T05:42:55.666Z,12.63
2023-03-21T05:48:17.553Z,12.57
2023-03-21T05:53:39.365Z,13.95
2023-03-21T05:59:01.300Z,10.93
2023-03-21T06:04:23.185Z,10.63
2023-03-21T06:09:45.121Z,10.45
2023-03-21T06:15:07.448Z,11.57
2023-03-21T06:20:29.361Z,11.00
2023-03-21T06:25:51.199Z,10.68
2023-03-21T06:31:13.132Z,11.32
2023-03-21T06:36:35.047Z,9.48
2023-03-21T06:41:57.609Z,10.02
2023-03-21T06:47:19.463Z,9.55
2023-03-21T06:52:41.399Z,10.07
2023-03-21T06:58:03.282Z,10.60
2023-03-21T07:03:25.302Z,9.23
2023-03-21T07:08:47.210Z,9.82
2023-03-21T07:14:09.067Z,9.60
2023-03-21T07:19:30.961Z,10.90
2023-03-21T07:25:04.110Z,7.70
2023-03-21T07:30:27.128Z,8.57
2023-03-21T07:35:53.761Z,7.80
2023-03-21T07:46:38.300Z,6.65
2023-03-21T07:52:00.730Z,8.45
2023-03-21T07:57:22.865Z,7.90
2023-03-21T08:02:44.841Z,8.45
2023-03-21T08:08:07.502Z,7.78
2023-03-21T08:13:29.481Z,7.38
2023-03-21T08:18:51.312Z,7.75
2023-03-21T08:24:13.146Z,7.85
2023-03-21T08:29:35.018Z,8.60
2023-03-21T08:35:03.379Z,7.30
2023-03-21T08:40:25.273Z,7.05
2023-03-21T08:45:47.207Z,7.25
2023-03-21T08:51:09.114Z,8.07
2023-03-21T08:56:30.957Z,7.38
2023-03-21T09:01:52.879Z,6.55
2023-03-21T09:07:14.760Z,6.32
2023-03-21T09:12:36.721Z,6.43
2023-03-21T09:17:59.425Z,7.30
2023-03-21T09:23:21.328Z,8.15
2023-03-21T09:28:43.231Z,7.93
2023-03-21T09:34:05.220Z,7.00
2023-03-21T09:39:27.183Z,7.25
2023-03-21T09:44:58.396Z,7.25
2023-03-21T09:50:24.826Z,8.55
2023-03-21T09:55:47.137Z,6.85
2023-03-21T10:01:08.992Z,6.88
2023-03-21T10:06:31.316Z,8.77
2023-03-21T10:11:56.857Z,13.95
2023-03-21T10:17:41.780Z,8.77
2023-03-21T10:23:07.003Z,7.78
2023-03-21T10:28:49.825Z,5.82
2023-03-21T10:34:26.400Z,4.22
2023-03-21T10:39:53.843Z,4.28
2023-03-21T10:45:19.299Z,5.00
2023-03-21T10:50:42.995Z,5.80
2023-03-21T10:56:09.807Z,6.00
2023-03-21T11:01:37.522Z,5.55
2023-03-21T11:07:05.839Z,5.10
2023-03-21T11:12:34.765Z,4.65
2023-03-21T11:17:58.032Z,4.65
2023-03-21T11:23:21.201Z,4.68
2023-03-21T11:28:43.553Z,4.55
2023-03-21T11:34:08.467Z,4.22
2023-03-21T11:39:33.797Z,4.20
2023-03-21T11:45:12.479Z,4.72
2023-03-21T11:50:37.450Z,4.20
2023-03-21T11:56:25.368Z,4.75
2023-03-21T12:02:16.197Z,3.45
2023-03-21T12:07:51.519Z,3.67
2023-03-21T12:13:37.089Z,3.70
2023-03-21T12:19:20.584Z,3.83
2023-03-21T12:24:54.243Z,3.97
2023-03-21T12:30:21.860Z,5.13
2023-03-21T12:35:52.497Z,4.30
2023-03-21T12:41:28.420Z,4.68
2023-03-21T12:47:12.157Z,4.93
2023-03-21T12:52:39.165Z,5.10
2023-03-21T12:58:15.678Z,5.07
2023-03-21T13:14:41.882Z,7.78
2023-03-21T13:20:45.864Z,6.00
2023-03-21T13:26:11.924Z,5.53
2023-03-21T13:31:45.376Z,4.10
2023-03-21T13:37:18.035Z,3.67
2023-03-21T13:42:45.326Z,2.97
2023-03-21T13:48:27.965Z,3.25
2023-03-21T13:54:08.141Z,1.85
2023-03-21T13:59:40.945Z,2.65
2023-03-21T14:05:07.659Z,2.65
2023-03-21T14:10:42.162Z,4.57
2023-03-21T14:16:10.563Z,4.97
2023-03-21T14:21:35.768Z,5.13
2023-03-21T14:26:57.896Z,8.88
2023-03-21T14:32:25.311Z,5.10
2023-03-21T14:37:47.895Z,5.38
2023-03-21T14:43:11.878Z,5.93
2023-03-21T14:48:34.797Z,5.25
2023-03-21T14:53:57.447Z,5.50
2023-03-21T14:59:23.380Z,5.18
2023-03-21T15:04:57.683Z,6.50
2023-03-21T15:10:20.064Z,7.07
2023-03-21T15:15:42.994Z,7.60
2023-03-21T15:21:10.522Z,7.22
2023-03-21T15:26:32.514Z,7.43
2023-03-21T15:31:54.461Z,12.07
2023-03-21T15:37:23.387Z,5.32
2023-03-21T15:42:45.387Z,4.93
2023-03-21T15:48:12.886Z,4.80
2023-03-21T15:53:37.245Z,4.82
2023-03-21T15:59:02.013Z,5.32
2023-03-21T16:04:24.072Z,5.10
2023-03-21T16:09:46.848Z,4.95
2023-03-21T16:15:09.167Z,5.22
2023-03-21T16:20:37.068Z,5.57
2023-03-21T16:25:59.176Z,5.28
2023-03-21T16:31:27.512Z,5.80
2023-03-21T16:36:49.366Z,6.22
2023-03-21T16:42:12.071Z,6.00
2023-03-21T16:47:33.998Z,6.28
2023-03-21T16:52:57.411Z,7.18
2023-03-21T16:58:19.254Z,7.18
2023-03-21T17:03:41.607Z,7.13
2023-03-21T17:09:03.590Z,7.28
2023-03-21T17:14:25.482Z,7.30
2023-03-21T17:19:47.388Z,15.82
2023-03-21T17:25:09.381Z,7.50
2023-03-21T17:30:38.204Z,10.50
2023-03-21T17:36:00.576Z,10.35
2023-03-21T17:41:22.425Z,9.93
2023-03-21T17:46:44.681Z,9.85
2023-03-21T17:52:06.571Z,10.38
2023-03-21T17:57:28.438Z,9.90
2023-03-21T18:02:51.296Z,9.98
2023-03-21T18:08:13.268Z,10.10
2023-03-21T18:13:35.158Z,10.45
2023-03-21T18:18:57.170Z,10.02
2023-03-21T18:24:19.050Z,9.40
2023-03-21T18:35:23.013Z,8.82
2023-03-21T18:40:44.909Z,9.07
2023-03-21T18:46:06.994Z,9.82
2023-03-21T18:51:28.826Z,9.18
2023-03-21T19:02:33.342Z,13.60
2023-03-21T19:07:55.397Z,13.55
2023-03-21T19:13:17.320Z,12.90
2023-03-21T19:18:53.851Z,13.02
2023-03-21T19:24:27.198Z,16.17
2023-03-21T19:30:06.572Z,26.50
2023-03-21T19:35:32.346Z,21.52
2023-03-21T19:40:59.769Z,21.90
2023-03-21T19:46:22.345Z,27.10
2023-03-21T19:51:44.196Z,27.77
2023-03-21T19:57:07.309Z,33.75
2023-03-21T20:02:37.125Z,33.13
2023-03-21T20:07:59.140Z,26.17
2023-03-21T20:13:20.951Z,24.48
2023-03-21T20:18:42.812Z,28.17
2023-03-21T20:24:05.042Z,32.63
2023-03-21T20:35:20.804Z,27.52
2023-03-21T20:40:49.283Z,26.05
2023-03-21T20:46:12.123Z,27.05
2023-03-21T20:57:15.778Z,24.10
2023-03-21T21:02:37.582Z,26.05
2023-03-21T21:08:01.100Z,26.52
2023-03-21T21:13:22.978Z,23.98
2023-03-21T21:18:44.810Z,24.85
2023-03-21T21:24:07.599Z,24.05
2023-03-21T21:29:29.632Z,26.50
2023-03-21T21:34:51.489Z,26.20
2023-03-21T21:40:13.524Z,27.40
2023-03-21T21:45:35.488Z,26.85
2023-03-21T21:50:57.512Z,24.75
2023-03-21T21:56:19.715Z,24.55
2023-03-21T22:01:42.065Z,24.33
2023-03-21T22:07:03.922Z,25.80
2023-03-21T22:12:25.796Z,28.20
2023-03-21T22:17:47.657Z,27.77
2023-03-21T22:23:09.498Z,28.92
2023-03-21T22:28:31.363Z,30.67
2023-03-21T22:33:53.184Z,32.00
2023-03-21T22:39:15.013Z,32.05
2023-03-21T22:44:36.855Z,33.67
2023-03-21T22:49:59.110Z,35.63
2023-03-21T22:55:21.009Z,35.28
2023-03-21T23:00:42.937Z,32.72
2023-03-21T23:06:04.950Z,35.15
2023-03-21T23:11:26.813Z,33.75
2023-03-21T23:16:49.701Z,35.08
2023-03-21T23:22:11.593Z,35.42
2023-03-21T23:27:33.471Z,37.17
2023-03-21T23:32:55.755Z,35.88
2023-03-21T23:38:17.616Z,37.30
2023-03-21T23:43:39.612Z,38.45
2023-03-21T23:49:01.603Z,39.95
2023-03-21T23:54:23.449Z,41.35
2023-03-21T23:59:45.295Z,42.70
